createdAt,value
2018-09-17T00:00:04.947Z,11.06
2018-09-17T00:02:32.111Z,11.10
2018-09-17T00:04:59.252Z,11.02
2018-09-17T00:07:26.408Z,10.91
2018-09-17T00:09:53.562Z,10.94
2018-09-17T00:12:20.760Z,10.51
2018-09-17T00:14:47.911Z,10.62
2018-09-17T00:17:15.115Z,10.51
2018-09-17T00:19:42.278Z,9.88
2018-09-17T00:22:09.399Z,10.25
2018-09-17T00:24:36.596Z,10.17
2018-09-17T00:27:03.756Z,10.24
2018-09-17T00:29:30.926Z,9.93
2018-09-17T00:31:58.076Z,10.28
2018-09-17T00:34:25.281Z,10.47
2018-09-17T00:36:52.452Z,10.60
2018-09-17T00:39:19.610Z,10.65
2018-09-17T00:41:46.819Z,10.72
2018-09-17T00:44:13.945Z,10.63
2018-09-17T00:46:41.165Z,10.06
2018-09-17T00:49:08.333Z,10.03
2018-09-17T00:51:35.603Z,10.20
2018-09-17T00:54:02.813Z,10.23
2018-09-17T00:56:29.927Z,10.34
2018-09-17T00:58:57.034Z,10.31
2018-09-17T01:01:24.216Z,10.31
2018-09-17T01:03:51.444Z,10.29
2018-09-17T01:06:18.562Z,10.31
2018-09-17T01:08:45.716Z,10.45
2018-09-17T01:11:12.984Z,10.26
2018-09-17T01:13:40.149Z,10.27
2018-09-17T01:16:07.358Z,10.20
2018-09-17T01:18:34.558Z,9.88
2018-09-17T01:21:01.716Z,9.56
2018-09-17T01:23:28.860Z,9.13
2018-09-17T01:25:56.063Z,8.93
2018-09-17T01:28:23.208Z,9.48
2018-09-17T01:30:50.487Z,9.63
2018-09-17T01:33:17.754Z,9.76
2018-09-17T01:35:44.973Z,9.85
2018-09-17T01:38:12.132Z,9.80
2018-09-17T01:40:39.315Z,9.74
2018-09-17T01:43:06.604Z,9.69
2018-09-17T01:45:33.790Z,9.75
2018-09-17T01:48:00.953Z,9.76
2018-09-17T01:50:28.122Z,9.80
2018-09-17T01:52:55.279Z,9.74
2018-09-17T01:55:22.436Z,9.48
2018-09-17T01:57:49.699Z,9.04
2018-09-17T02:00:16.875Z,8.94
2018-09-17T02:02:44.136Z,8.88
2018-09-17T02:05:11.339Z,9.03
2018-09-17T02:07:38.696Z,9.23
2018-09-17T02:10:06.001Z,9.42
2018-09-17T02:12:33.152Z,9.63
2018-09-17T02:15:00.339Z,9.70
2018-09-17T02:17:27.695Z,9.76
2018-09-17T02:19:54.856Z,9.51
2018-09-17T02:22:22.171Z,9.63
2018-09-17T02:24:49.511Z,9.73
2018-09-17T02:27:16.808Z,9.60
2018-09-17T02:29:43.901Z,9.16
2018-09-17T02:32:11.075Z,9.47
2018-09-17T02:34:38.229Z,9.45
2018-09-17T02:37:05.424Z,9.44
2018-09-17T02:39:32.597Z,9.36
2018-09-17T02:41:59.772Z,9.29
2018-09-17T02:44:26.924Z,9.33
2018-09-17T02:46:54.044Z,9.42
2018-09-17T02:49:21.244Z,9.31
2018-09-17T02:51:48.499Z,9.30
2018-09-17T02:54:15.655Z,9.41
2018-09-17T02:56:42.865Z,9.47
2018-09-17T02:59:10.127Z,9.31
2018-09-17T03:01:37.265Z,9.07
2018-09-17T03:04:04.517Z,8.93
2018-09-17T03:06:31.666Z,9.02
2018-09-17T03:08:58.797Z,9.10
2018-09-17T03:11:26.009Z,9.19
2018-09-17T03:13:53.363Z,9.14
2018-09-17T03:16:20.552Z,8.98
2018-09-17T03:18:50.507Z,9.07
2018-09-17T03:21:17.714Z,9.23
2018-09-17T03:23:44.905Z,8.97
2018-09-17T03:26:12.053Z,8.89
2018-09-17T03:28:39.257Z,9.13
2018-09-17T03:31:06.368Z,8.81
2018-09-17T03:33:33.561Z,9.01
2018-09-17T03:36:00.897Z,9.16
2018-09-17T03:38:43.562Z,9.02
2018-09-17T03:41:11.492Z,8.58
2018-09-17T03:43:39.964Z,8.84
2018-09-17T03:46:07.162Z,8.53
2018-09-17T03:48:35.103Z,8.74
2018-09-17T03:51:03.125Z,8.78
2018-09-17T03:53:30.741Z,8.56
2018-09-17T03:55:57.945Z,8.72
2018-09-17T03:58:25.182Z,8.81
2018-09-17T04:00:52.379Z,8.67
2018-09-17T04:03:19.631Z,8.73
2018-09-17T04:05:46.838Z,8.90
2018-09-17T04:08:14.024Z,8.92
2018-09-17T04:10:41.235Z,8.77
2018-09-17T04:13:09.090Z,8.86
2018-09-17T04:15:36.273Z,8.95
2018-09-17T04:18:03.452Z,8.86
2018-09-17T04:20:30.648Z,8.65
2018-09-17T04:22:57.903Z,8.73
2018-09-17T04:25:25.233Z,8.92
2018-09-17T04:27:52.396Z,8.89
2018-09-17T04:30:19.532Z,8.92
2018-09-17T04:32:46.732Z,8.39
2018-09-17T04:35:13.994Z,7.94
2018-09-17T04:37:41.172Z,8.16
2018-09-17T04:40:08.593Z,8.37
2018-09-17T04:42:36.807Z,8.41
2018-09-17T04:45:04.060Z,8.66
2018-09-17T04:47:31.708Z,8.54
2018-09-17T04:49:58.919Z,8.62
2018-09-17T04:52:26.041Z,8.42
2018-09-17T04:54:53.204Z,8.33
2018-09-17T04:57:20.442Z,8.42
2018-09-17T04:59:47.571Z,8.50
2018-09-17T05:02:14.756Z,8.56
2018-09-17T05:04:41.976Z,8.12
2018-09-17T05:07:09.127Z,8.17
2018-09-17T05:09:36.304Z,8.30
2018-09-17T05:12:03.684Z,8.41
2018-09-17T05:14:30.803Z,7.97
2018-09-17T05:16:58.095Z,8.37
2018-09-17T05:19:25.322Z,8.58
2018-09-17T05:21:52.540Z,8.30
2018-09-17T05:24:19.767Z,8.64
2018-09-17T05:26:47.035Z,8.75
2018-09-17T05:29:14.235Z,8.46
2018-09-17T05:31:41.445Z,8.55
2018-09-17T05:34:08.590Z,8.18
2018-09-17T05:36:35.861Z,8.28
2018-09-17T05:39:04.360Z,8.55
2018-09-17T05:41:31.581Z,8.76
2018-09-17T05:43:58.776Z,9.06
2018-09-17T05:46:26.379Z,9.26
2018-09-17T05:48:53.503Z,9.38
2018-09-17T05:51:20.743Z,9.47
2018-09-17T05:53:47.975Z,9.58
2018-09-17T05:56:15.132Z,9.66
2018-09-17T05:58:42.263Z,9.81
2018-09-17T06:01:09.486Z,9.43
2018-09-17T06:03:36.680Z,9.71
2018-09-17T06:06:03.959Z,9.65
2018-09-17T06:08:31.049Z,9.52
2018-09-17T06:10:58.255Z,9.78
2018-09-17T06:13:25.381Z,9.73
2018-09-17T06:15:52.595Z,9.97
2018-09-17T06:18:19.876Z,10.19
2018-09-17T06:20:47.040Z,10.28
2018-09-17T06:23:14.252Z,10.32
2018-09-17T06:25:41.432Z,10.38
2018-09-17T06:28:08.595Z,10.43
2018-09-17T06:30:35.788Z,10.46
2018-09-17T06:33:02.952Z,10.42
2018-09-17T06:35:30.114Z,10.61
2018-09-17T06:37:57.264Z,10.72
2018-09-17T06:40:24.482Z,10.63
2018-09-17T06:42:51.605Z,10.88
2018-09-17T06:45:18.820Z,10.81
2018-09-17T06:47:45.996Z,11.26
2018-09-17T06:50:13.149Z,11.31
2018-09-17T06:52:40.366Z,11.61
2018-09-17T06:55:07.760Z,11.55
2018-09-17T06:57:34.933Z,11.53
2018-09-17T07:00:02.466Z,12.02
2018-09-17T07:02:29.648Z,12.12
2018-09-17T07:04:56.840Z,11.90
2018-09-17T07:07:24.074Z,12.24
2018-09-17T07:09:51.256Z,12.30
2018-09-17T07:12:18.428Z,12.47
2018-09-17T07:14:45.606Z,12.80
2018-09-17T07:17:12.760Z,13.12
2018-09-17T07:19:39.953Z,13.19
2018-09-17T07:22:07.124Z,13.55
2018-09-17T07:24:34.292Z,13.68
2018-09-17T07:27:01.480Z,13.93
2018-09-17T07:29:28.639Z,14.49
2018-09-17T07:31:55.833Z,14.75
2018-09-17T07:34:23.088Z,14.79
2018-09-17T07:36:50.251Z,14.88
2018-09-17T07:39:17.493Z,15.05
2018-09-17T07:41:44.644Z,15.07
2018-09-17T07:44:11.879Z,15.42
2018-09-17T07:46:39.102Z,15.49
2018-09-17T07:49:06.264Z,15.95
2018-09-17T07:51:33.419Z,16.18
2018-09-17T07:54:00.620Z,16.30
2018-09-17T07:56:28.207Z,16.45
2018-09-17T07:58:55.430Z,16.66
2018-09-17T08:01:22.580Z,16.71
2018-09-17T08:03:49.817Z,16.77
2018-09-17T08:06:16.992Z,16.77
2018-09-17T08:08:44.229Z,16.95
2018-09-17T08:11:11.427Z,16.94
2018-09-17T08:13:38.830Z,17.06
2018-09-17T08:16:06.036Z,17.27
2018-09-17T08:18:33.187Z,17.17
2018-09-17T08:21:00.375Z,17.03
2018-09-17T08:23:27.575Z,16.58
2018-09-17T08:25:54.781Z,16.97
2018-09-17T08:28:22.096Z,17.22
2018-09-17T08:30:49.291Z,17.10
2018-09-17T08:33:16.436Z,17.57
2018-09-17T08:35:43.657Z,17.71
2018-09-17T08:38:10.829Z,17.75
2018-09-17T08:40:38.039Z,17.60
2018-09-17T08:43:05.624Z,17.74
2018-09-17T08:45:32.767Z,18.06
2018-09-17T08:47:59.968Z,18.37
2018-09-17T08:50:27.169Z,18.40
2018-09-17T08:52:54.392Z,18.78
2018-09-17T08:55:27.443Z,18.74
2018-09-17T08:58:00.955Z,18.88
2018-09-17T09:01:08.320Z,19.11
2018-09-17T09:03:38.856Z,18.96
2018-09-17T09:06:11.758Z,18.94
2018-09-17T09:08:38.913Z,19.10
2018-09-17T09:11:11.779Z,19.35
2018-09-17T09:13:44.531Z,19.51
2018-09-17T09:16:11.655Z,19.72
2018-09-17T09:18:38.796Z,19.79
2018-09-17T09:21:06.031Z,19.72
2018-09-17T09:23:33.220Z,19.93
2018-09-17T09:26:00.440Z,20.04
2018-09-17T09:28:27.772Z,20.11
2018-09-17T09:30:54.936Z,20.28
2018-09-17T09:33:22.115Z,20.48
2018-09-17T09:35:49.313Z,20.52
2018-09-17T09:38:16.515Z,20.66
2018-09-17T09:40:43.695Z,20.83
2018-09-17T09:43:10.827Z,20.98
2018-09-17T09:45:37.959Z,21.14
2018-09-17T09:48:11.928Z,21.23
2018-09-17T09:50:39.124Z,21.38
2018-09-17T09:53:06.287Z,21.54
2018-09-17T09:55:33.603Z,21.64
2018-09-17T09:58:07.632Z,21.92
2018-09-17T10:01:39.082Z,21.89
2018-09-17T10:04:12.112Z,22.01
2018-09-17T10:06:39.260Z,22.09
2018-09-17T10:09:12.852Z,22.19
2018-09-17T10:11:45.773Z,22.32
2018-09-17T10:14:18.655Z,22.32
2018-09-17T10:17:51.319Z,22.41
2018-09-17T10:20:18.624Z,22.55
2018-09-17T10:22:45.855Z,22.63
2018-09-17T10:25:13.093Z,22.70
2018-09-17T10:27:40.355Z,22.86
2018-09-17T10:30:07.540Z,22.75
2018-09-17T10:32:34.737Z,23.07
2018-09-17T10:35:02.008Z,23.24
2018-09-17T10:37:29.173Z,23.26
2018-09-17T10:39:56.345Z,23.38
2018-09-17T10:42:23.488Z,23.46
2018-09-17T10:44:50.604Z,23.42
2018-09-17T10:47:17.817Z,23.49
2018-09-17T10:49:45.013Z,23.57
2018-09-17T10:52:12.207Z,23.58
2018-09-17T10:54:39.443Z,23.71
2018-09-17T10:57:06.607Z,23.74
2018-09-17T10:59:33.836Z,23.76
2018-09-17T11:02:00.984Z,23.89
2018-09-17T11:04:28.176Z,24.10
2018-09-17T11:06:55.399Z,24.27
2018-09-17T11:09:22.608Z,24.48
2018-09-17T11:11:56.560Z,24.92
2018-09-17T11:14:23.740Z,24.76
2018-09-17T11:16:50.875Z,24.87
2018-09-17T11:19:18.027Z,24.89
2018-09-17T11:21:45.179Z,24.95
2018-09-17T11:24:12.421Z,24.88
2018-09-17T11:26:39.600Z,25.38
2018-09-17T11:29:06.740Z,26.04
2018-09-17T11:31:33.972Z,25.61
2018-09-17T11:34:01.097Z,25.88
2018-09-17T11:36:28.273Z,25.65
2018-09-17T11:38:55.420Z,25.45
2018-09-17T11:41:22.578Z,25.42
2018-09-17T11:43:49.900Z,25.23
2018-09-17T11:46:17.156Z,25.32
2018-09-17T11:48:44.348Z,25.18
2018-09-17T11:51:11.495Z,24.82
2018-09-17T11:53:38.763Z,24.78
2018-09-17T11:56:05.849Z,24.48
2018-09-17T11:58:33.112Z,25.16
2018-09-17T12:01:06.016Z,25.42
2018-09-17T12:03:39.008Z,25.86
2018-09-17T12:06:06.223Z,26.05
2018-09-17T12:08:33.397Z,26.36
2018-09-17T12:11:00.616Z,26.39
2018-09-17T12:13:27.794Z,26.03
2018-09-17T12:15:54.932Z,25.84
2018-09-17T12:18:22.163Z,25.70
2018-09-17T12:20:49.304Z,25.61
2018-09-17T12:23:16.484Z,25.70
2018-09-17T12:25:43.669Z,25.77
2018-09-17T12:28:10.836Z,25.93
2018-09-17T12:30:38.012Z,26.09
2018-09-17T12:33:11.999Z,26.17
2018-09-17T12:35:39.140Z,26.79
2018-09-17T12:38:06.280Z,27.30
2018-09-17T12:40:33.457Z,27.75
2018-09-17T12:43:00.685Z,27.93
2018-09-17T12:45:27.884Z,27.80
2018-09-17T12:47:55.367Z,28.00
2018-09-17T12:50:22.840Z,28.03
2018-09-17T12:52:50.009Z,27.90
2018-09-17T12:55:17.280Z,27.70
2018-09-17T12:57:44.580Z,27.43
2018-09-17T13:00:11.816Z,27.63
2018-09-17T13:02:39.083Z,27.61
2018-09-17T13:05:06.544Z,27.61
2018-09-17T13:07:33.741Z,27.66
2018-09-17T13:10:01.075Z,27.84
2018-09-17T13:12:28.329Z,27.47
2018-09-17T13:14:56.062Z,27.30
2018-09-17T13:17:23.167Z,27.72
2018-09-17T13:19:50.360Z,27.82
2018-09-17T13:22:17.566Z,28.19
2018-09-17T13:24:44.837Z,28.14
2018-09-17T13:27:12.044Z,27.95
2018-09-17T13:29:39.287Z,27.37
2018-09-17T13:32:06.606Z,27.06
2018-09-17T13:34:33.727Z,28.11
2018-09-17T13:37:00.988Z,28.71
2018-09-17T13:39:28.181Z,28.85
2018-09-17T13:41:55.336Z,28.73
2018-09-17T13:44:22.599Z,28.35
2018-09-17T13:46:49.812Z,28.38
2018-09-17T13:49:16.991Z,28.56
2018-09-17T13:51:44.294Z,28.60
2018-09-17T13:54:11.575Z,29.15
2018-09-17T13:56:38.773Z,29.38
2018-09-17T13:59:06.117Z,28.51
2018-09-17T14:01:33.322Z,29.53
2018-09-17T14:04:00.493Z,29.56
2018-09-17T14:06:27.671Z,28.80
2018-09-17T14:08:54.864Z,29.12
2018-09-17T14:11:22.104Z,29.07
2018-09-17T14:13:49.351Z,29.61
2018-09-17T14:16:21.130Z,29.61
2018-09-17T14:18:48.311Z,29.16
2018-09-17T14:21:15.536Z,29.06
2018-09-17T14:23:42.713Z,28.68
2018-09-17T16:07:00.671Z,25.88
2018-09-17T16:09:27.833Z,25.51
2018-09-17T16:11:56.740Z,25.10
2018-09-17T16:14:24.236Z,24.65
2018-09-17T16:16:51.476Z,24.74
2018-09-17T16:19:18.628Z,24.70
2018-09-17T16:21:45.918Z,24.23
2018-09-17T16:24:13.115Z,24.35
2018-09-17T16:26:40.313Z,24.13
2018-09-17T16:29:07.529Z,24.31
2018-09-17T16:31:34.818Z,24.30
2018-09-17T16:34:02.044Z,24.07
2018-09-17T16:36:29.362Z,23.84
2018-09-17T16:38:56.558Z,23.68
2018-09-17T16:41:23.837Z,23.47
2018-09-17T16:43:51.008Z,23.40
2018-09-17T16:46:18.224Z,23.27
2018-09-17T16:48:45.405Z,23.09
2018-09-17T16:51:12.775Z,23.07
2018-09-17T16:53:40.298Z,22.97
2018-09-17T16:56:07.457Z,22.78
2018-09-17T16:58:34.737Z,22.53
2018-09-17T17:01:02.196Z,22.45
2018-09-17T17:03:29.408Z,22.34
2018-09-17T17:05:56.752Z,22.25
2018-09-17T17:08:23.978Z,22.03
2018-09-17T17:10:51.341Z,22.01
2018-09-17T17:13:18.529Z,21.91
2018-09-17T17:15:47.320Z,21.62
2018-09-17T17:18:15.781Z,21.48
2018-09-17T17:20:43.163Z,21.56
2018-09-17T17:23:10.369Z,21.53
2018-09-17T17:25:37.573Z,21.54
2018-09-17T17:28:04.839Z,21.57
2018-09-17T17:30:32.131Z,21.20
2018-09-17T17:32:59.376Z,20.89
2018-09-17T17:35:26.677Z,20.84
2018-09-17T17:37:53.957Z,20.83
2018-09-17T17:40:21.351Z,20.59
2018-09-17T17:42:48.612Z,20.35
2018-09-17T17:45:15.975Z,20.28
2018-09-17T17:47:43.284Z,20.04
2018-09-17T17:50:10.584Z,20.05
2018-09-17T17:52:37.811Z,20.15
2018-09-17T17:55:05.713Z,20.06
2018-09-17T17:57:32.944Z,20.06
2018-09-17T18:00:00.273Z,19.83
2018-09-17T18:02:27.669Z,19.77
2018-09-17T18:04:55.028Z,19.64
2018-09-17T18:07:22.427Z,19.45
2018-09-17T18:09:49.669Z,19.54
2018-09-17T18:12:17.081Z,19.43
2018-09-17T18:14:45.306Z,19.59
2018-09-17T18:17:13.007Z,19.61
2018-09-17T18:19:40.309Z,19.61
2018-09-17T18:22:07.583Z,19.58
2018-09-17T18:24:35.060Z,19.55
2018-09-17T18:27:02.553Z,19.49
2018-09-17T18:29:29.746Z,19.15
2018-09-17T18:31:56.974Z,18.36
2018-09-17T18:34:24.428Z,18.44
2018-09-17T18:36:51.851Z,18.31
2018-09-17T18:39:19.353Z,18.12
2018-09-17T18:41:46.652Z,18.22
2018-09-17T18:44:13.933Z,18.36
2018-09-17T18:46:41.165Z,18.47
2018-09-17T18:49:08.600Z,18.42
2018-09-17T18:51:35.965Z,18.55
2018-09-17T18:54:03.352Z,18.53
2018-09-17T18:56:30.738Z,18.42
2018-09-17T18:58:58.004Z,18.11
2018-09-17T19:01:25.358Z,17.93
2018-09-17T19:03:52.691Z,17.89
2018-09-17T19:06:20.021Z,17.72
2018-09-17T19:08:47.371Z,17.78
2018-09-17T19:11:14.617Z,17.49
2018-09-17T19:13:45.805Z,16.84
2018-09-17T19:16:13.141Z,16.91
2018-09-17T19:18:40.458Z,16.59
2018-09-17T19:21:07.856Z,16.77
2018-09-17T19:23:40.567Z,17.11
2018-09-17T19:26:07.816Z,17.33
2018-09-17T19:28:40.681Z,17.23
2018-09-17T19:31:07.972Z,17.30
2018-09-17T19:33:35.208Z,17.22
2018-09-17T19:36:02.472Z,17.26
2018-09-17T19:39:36.483Z,17.11
2018-09-17T19:42:03.967Z,17.22
2018-09-17T19:44:31.262Z,17.21
2018-09-17T19:46:58.550Z,17.11
2018-09-17T19:49:25.809Z,16.49
2018-09-17T19:51:58.704Z,16.75
2018-09-17T19:54:26.032Z,16.58
2018-09-17T19:56:53.270Z,16.31
2018-09-17T19:59:26.453Z,16.50
2018-09-17T20:01:53.729Z,16.80
2018-09-17T20:04:27.038Z,16.79
2018-09-17T20:06:54.341Z,16.36
2018-09-17T20:09:21.668Z,16.24
2018-09-17T20:11:48.893Z,15.79
2018-09-17T20:14:16.205Z,16.10
2018-09-17T20:16:43.437Z,16.18
2018-09-17T20:19:10.720Z,16.19
2018-09-17T20:21:38.035Z,16.26
2018-09-17T20:24:05.354Z,16.24
2018-09-17T20:26:32.619Z,15.94
2018-09-17T20:28:59.953Z,15.71
2018-09-17T20:31:27.219Z,15.67
2018-09-17T20:33:54.453Z,15.82
2018-09-17T20:36:21.723Z,16.04
2018-09-17T20:38:49.200Z,16.10
2018-09-17T20:41:16.435Z,16.01
2018-09-17T20:43:43.765Z,15.53
2018-09-17T20:46:11.032Z,15.17
2018-09-17T20:48:38.328Z,15.43
2018-09-17T20:51:12.642Z,15.66
2018-09-17T20:53:40.135Z,15.81
2018-09-17T20:56:07.632Z,15.60
2018-09-17T20:58:34.857Z,15.61
2018-09-17T21:01:02.876Z,15.60
2018-09-17T21:03:30.069Z,15.66
2018-09-17T21:05:57.317Z,15.72
2018-09-17T21:08:24.615Z,15.83
2018-09-17T21:10:51.848Z,15.74
2018-09-17T21:13:19.755Z,15.59
2018-09-17T21:15:47.040Z,15.40
2018-09-17T21:18:14.201Z,15.37
2018-09-17T21:20:41.553Z,15.44
2018-09-17T21:23:08.800Z,15.36
2018-09-17T21:25:36.017Z,15.37
2018-09-17T21:28:03.685Z,15.37
2018-09-17T21:30:30.943Z,15.00
2018-09-17T21:32:58.293Z,14.56
2018-09-17T21:35:25.508Z,14.29
2018-09-17T21:37:52.945Z,14.26
2018-09-17T21:40:20.950Z,14.16
2018-09-17T21:42:48.254Z,14.40
2018-09-17T21:45:15.505Z,14.68
2018-09-17T21:47:42.740Z,14.62
2018-09-17T21:50:10.053Z,14.76
2018-09-17T21:52:37.305Z,14.77
2018-09-17T21:55:04.833Z,14.49
2018-09-17T21:57:32.121Z,14.58
2018-09-17T21:59:59.753Z,14.76
2018-09-17T22:02:27.241Z,14.77
2018-09-17T22:04:54.653Z,14.63
2018-09-17T22:07:23.134Z,14.67
2018-09-17T22:09:50.377Z,14.57
2018-09-17T22:12:17.691Z,14.23
2018-09-17T22:14:44.963Z,13.76
2018-09-17T22:17:12.236Z,14.06
2018-09-17T22:19:39.575Z,13.92
2018-09-17T22:22:06.809Z,13.66
2018-09-17T22:24:34.041Z,13.63
2018-09-17T22:27:01.330Z,13.92
2018-09-17T22:29:28.565Z,14.04
2018-09-17T22:31:55.845Z,14.15
2018-09-17T22:34:23.155Z,14.29
2018-09-17T22:36:50.340Z,14.23
2018-09-17T22:39:17.609Z,14.30
2018-09-17T22:41:44.853Z,14.10
2018-09-17T22:44:12.105Z,13.84
2018-09-17T22:46:39.400Z,13.61
2018-09-17T22:49:07.072Z,13.66
2018-09-17T22:51:34.350Z,13.71
2018-09-17T22:54:01.678Z,13.87
2018-09-17T22:56:28.881Z,13.95
2018-09-17T22:58:56.199Z,13.90
2018-09-17T23:01:23.588Z,13.75
2018-09-17T23:03:50.853Z,13.51
2018-09-17T23:06:18.056Z,13.24
2018-09-17T23:08:45.330Z,13.19
2018-09-17T23:11:12.571Z,13.38
2018-09-17T23:13:39.977Z,13.43
2018-09-17T23:16:07.225Z,13.52
2018-09-17T23:18:34.457Z,13.65
2018-09-17T23:21:01.698Z,13.71
2018-09-17T23:23:29.003Z,13.71
2018-09-17T23:25:56.212Z,13.56
2018-09-17T23:28:23.475Z,13.65
2018-09-17T23:30:50.749Z,13.63
2018-09-17T23:33:17.960Z,13.49
2018-09-17T23:35:45.231Z,13.15
2018-09-17T23:38:12.422Z,12.62
2018-09-17T23:40:39.659Z,12.72
2018-09-17T23:43:06.908Z,12.83
2018-09-17T23:45:34.124Z,12.82
2018-09-17T23:48:01.404Z,13.05
2018-09-17T23:50:28.650Z,12.98
2018-09-17T23:52:55.840Z,12.99
2018-09-17T23:55:23.085Z,12.78
2018-09-17T23:57:50.334Z,12.60
